Time;durP1;ratioP1;P1;durP2;ratioP2;P2;SDS_P1;SDS_P2;PMS_P1;PMS_P2;Temp;Humidity;BMP_temperature;BMP_pressure;BME280_temperature;BME280_humidity;BME280_pressure;Samples;Min_cycle;Max_cycle;Signal;HPM_P1;HPM_P2
2023/02/14 00:00:18;;;;;;;5.97;1.50;;;8.60;99.90;;;;;;4989535;28;20284;-70
2023/02/14 00:02:45;;;;;;;4.30;1.70;;;8.60;99.90;;;;;;5006358;28;21021;-72
2023/02/14 00:05:13;;;;;;;3.10;1.67;;;8.60;99.90;;;;;;4991137;28;20233;-70
2023/02/14 00:07:41;;;;;;;3.80;2.00;;;8.60;99.90;;;;;;4991965;28;20602;-69
2023/02/14 00:10:08;;;;;;;7.07;2.10;;;8.60;99.90;;;;;;4993447;28;20237;-70
2023/02/14 00:12:36;;;;;;;4.60;2.10;;;8.60;99.90;;;;;;5008956;28;20300;-70
2023/02/14 00:15:21;;;;;;;4.83;1.60;;;8.60;99.90;;;;;;4994658;28;20289;-70
2023/02/14 00:17:48;;;;;;;10.10;2.47;;;8.60;99.90;;;;;;4993787;28;20216;-71
2023/02/14 00:20:17;;;;;;;5.37;1.80;;;8.60;99.90;;;;;;4993892;28;20279;-70
2023/02/14 00:22:44;;;;;;;2.80;1.60;;;8.60;99.90;;;;;;4993080;28;20200;-71
2023/02/14 00:25:12;;;;;;;2.77;1.53;;;8.60;99.90;;;;;;4995214;28;20200;-70
2023/02/14 00:27:39;;;;;;;4.87;1.67;;;8.60;99.90;;;;;;4992523;28;20192;-70
2023/02/14 00:30:08;;;;;;;5.00;1.80;;;8.60;99.90;;;;;;4991483;28;20196;-69
2023/02/14 00:32:37;;;;;;;4.93;2.33;;;8.50;99.90;;;;;;5005266;28;20201;-69
2023/02/14 00:35:05;;;;;;;4.40;1.63;;;8.50;99.90;;;;;;5010242;28;20285;-70
2023/02/14 00:37:33;;;;;;;5.77;2.20;;;8.50;99.90;;;;;;5004605;28;20203;-70
2023/02/14 00:40:01;;;;;;;5.23;1.87;;;8.50;99.90;;;;;;4998572;28;20277;-70
2023/02/14 00:42:28;;;;;;;4.80;2.13;;;8.50;99.90;;;;;;4992902;28;20656;-69
2023/02/14 00:44:55;;;;;;;7.70;1.93;;;8.50;99.90;;;;;;4992207;28;20685;-70
2023/02/14 00:47:22;;;;;;;7.37;2.17;;;8.50;99.90;;;;;;4989742;28;20200;-70
2023/02/14 00:49:49;;;;;;;5.37;1.80;;;8.50;99.90;;;;;;4994861;28;20228;-70
2023/02/14 00:52:16;;;;;;;5.57;2.10;;;8.50;99.90;;;;;;4995772;28;20217;-70
2023/02/14 00:54:45;;;;;;;3.37;2.00;;;8.50;99.90;;;;;;5000518;28;20705;-69
2023/02/14 00:57:14;;;;;;;5.47;2.20;;;8.50;99.90;;;;;;4994954;28;20339;-69
2023/02/14 00:59:41;;;;;;;5.23;2.07;;;8.50;99.90;;;;;;5019436;28;20193;-69
2023/02/14 01:02:08;;;;;;;5.63;1.73;;;8.50;99.90;;;;;;5009048;28;20216;-68
2023/02/14 01:04:35;;;;;;;5.50;2.00;;;8.50;99.90;;;;;;4994857;28;20199;-70
2023/02/14 01:07:02;;;;;;;3.63;1.83;;;8.50;99.90;;;;;;4996074;28;20240;-70
2023/02/14 01:09:29;;;;;;;5.37;1.90;;;8.50;99.90;;;;;;4997959;28;20258;-69
2023/02/14 01:11:58;;;;;;;2.27;1.47;;;8.50;99.90;;;;;;4997233;28;20194;-70
2023/02/14 01:14:25;;;;;;;3.93;1.50;;;8.50;99.90;;;;;;4993903;28;20560;-70
2023/02/14 01:16:52;;;;;;;7.10;1.90;;;8.50;99.90;;;;;;4994859;28;20232;-70
2023/02/14 01:19:19;;;;;;;4.37;1.67;;;8.40;99.90;;;;;;5010885;28;20221;-69
2023/02/14 01:21:47;;;;;;;3.27;1.87;;;8.40;99.90;;;;;;4995323;28;20259;-69
2023/02/14 01:24:15;;;;;;;4.20;1.67;;;8.50;99.90;;;;;;4990800;28;20670;-70
2023/02/14 01:26:43;;;;;;;5.73;1.50;;;8.40;99.90;;;;;;5010737;28;20226;-69
2023/02/14 01:29:11;;;;;;;3.47;1.47;;;8.40;99.90;;;;;;5006908;28;20339;-69
2023/02/14 01:31:39;;;;;;;9.00;2.37;;;8.50;99.90;;;;;;4991853;28;20606;-69
2023/02/14 01:34:06;;;;;;;3.10;1.60;;;8.50;99.90;;;;;;5007121;28;20360;-69
2023/02/14 01:36:35;;;;;;;6.77;2.00;;;8.40;99.90;;;;;;4994208;28;20201;-70
2023/02/14 01:39:06;;;;;;;2.93;1.20;;;8.30;99.90;;;;;;5001889;28;20201;-68
2023/02/14 01:41:35;;;;;;;5.80;2.10;;;8.50;99.90;;;;;;4994521;28;20198;-69
2023/02/14 01:44:05;;;;;;;4.13;1.93;;;8.40;99.90;;;;;;4992402;28;20200;-69
2023/02/14 01:46:36;;;;;;;4.53;1.87;;;8.40;99.90;;;;;;4997707;28;20224;-70
2023/02/14 01:49:09;;;;;;;10.77;2.33;;;8.40;99.90;;;;;;4991277;28;20190;-69
2023/02/14 01:51:41;;;;;;;4.13;1.90;;;8.40;99.90;;;;;;4992135;28;20201;-69
2023/02/14 01:54:09;;;;;;;3.57;2.03;;;8.40;99.90;;;;;;4994576;28;20677;-70
2023/02/14 01:56:41;;;;;;;5.00;2.03;;;8.40;99.90;;;;;;4991503;28;20677;-70
2023/02/14 01:59:11;;;;;;;6.47;2.03;;;8.40;99.90;;;;;;5009080;28;20299;-69
2023/02/14 02:01:41;;;;;;;4.60;1.83;;;8.40;99.90;;;;;;4993996;28;20246;-70
2023/02/14 02:04:13;;;;;;;6.63;2.00;;;8.40;99.90;;;;;;5004374;28;20240;-70
2023/02/14 02:06:43;;;;;;;5.73;1.90;;;8.40;99.90;;;;;;4992533;28;20692;-70
2023/02/14 02:09:14;;;;;;;5.37;1.80;;;8.30;99.90;;;;;;4994334;28;20226;-71
2023/02/14 02:11:42;;;;;;;4.87;2.10;;;8.30;99.90;;;;;;4995299;28;20541;-70
2023/02/14 02:14:13;;;;;;;3.13;1.70;;;8.30;99.90;;;;;;4994526;28;20264;-70
2023/02/14 02:16:56;;;;;;;2.53;1.67;;;8.30;99.90;;;;;;4997034;28;20235;-70
2023/02/14 02:19:46;;;;;;;3.90;1.60;;;8.30;99.90;;;;;;5005155;28;20346;-69
2023/02/14 02:22:44;;;;;;;5.07;2.07;;;8.30;99.90;;;;;;4989436;28;20207;-70
2023/02/14 02:25:21;;;;;;;4.77;2.03;;;8.30;99.90;;;;;;4998070;28;20279;-70
2023/02/14 02:28:18;;;;;;;3.40;2.00;;;8.30;99.90;;;;;;5000351;28;20280;-70
2023/02/14 02:31:11;;;;;;;9.00;2.13;;;8.30;99.90;;;;;;4992226;28;20206;-69
2023/02/14 02:34:07;;;;;;;5.57;1.80;;;8.30;99.90;;;;;;4996540;28;20241;-69
2023/02/14 02:37:02;;;;;;;6.53;1.57;;;8.20;99.90;;;;;;5000710;28;20199;-69
2023/02/14 02:39:48;;;;;;;5.07;2.03;;;8.20;99.90;;;;;;4993744;28;20318;-70
2023/02/14 02:42:30;;;;;;;5.20;1.90;;;8.20;99.90;;;;;;4991341;28;20203;-71
2023/02/14 02:45:10;;;;;;;3.33;1.80;;;8.20;99.90;;;;;;5005175;28;20221;-70
2023/02/14 02:47:44;;;;;;;3.17;1.73;;;8.20;99.90;;;;;;4997139;28;20915;-71
2023/02/14 02:53:18;;;;;;;1.60;1.20;;;8.20;99.90;;;;;;4990033;28;20197;-70
2023/02/14 02:58:42;;;;;;;2.67;1.50;;;8.20;99.90;;;;;;5004481;28;20559;-70
2023/02/14 03:01:12;;;;;;;3.70;1.87;;;8.20;99.90;;;;;;5007137;28;20628;-71
2023/02/14 03:06:26;;;;;;;2.23;1.73;;;8.20;99.90;;;;;;5020244;28;20187;-70
2023/02/14 03:08:55;;;;;;;2.83;1.73;;;8.20;99.90;;;;;;4993913;28;20262;-69
2023/02/14 03:11:24;;;;;;;2.13;1.30;;;8.20;99.90;;;;;;5006167;28;20287;-70
2023/02/14 03:14:08;;;;;;;2.73;1.23;;;8.20;99.90;;;;;;4994056;28;20263;-70
2023/02/14 03:16:46;;;;;;;7.47;2.37;;;8.20;99.90;;;;;;5009448;28;20630;-71
2023/02/14 03:22:31;;;;;;;4.20;2.03;;;8.20;99.90;;;;;;4996753;28;20259;-70
2023/02/14 03:25:06;;;;;;;3.07;2.13;;;8.20;99.90;;;;;;5009435;28;20204;-70
2023/02/14 03:27:41;;;;;;;3.23;1.97;;;8.20;99.90;;;;;;4989681;28;20755;-70
2023/02/14 03:30:15;;;;;;;3.37;2.63;;;8.20;99.90;;;;;;5000202;28;20685;-70
2023/02/14 03:32:47;;;;;;;3.90;2.10;;;8.20;99.90;;;;;;4999042;28;20730;-69
2023/02/14 03:35:20;;;;;;;2.70;1.77;;;8.20;99.90;;;;;;5005184;28;20695;-70
2023/02/14 03:37:50;;;;;;;2.80;2.23;;;8.20;99.90;;;;;;5026595;28;20203;-70
2023/02/14 03:40:23;;;;;;;3.57;2.07;;;8.20;99.90;;;;;;4993634;28;20228;-70
2023/02/14 03:42:54;;;;;;;5.53;2.40;;;8.10;99.90;;;;;;4992846;28;20188;-70
2023/02/14 03:45:27;;;;;;;4.33;2.03;;;8.10;99.90;;;;;;5010529;28;20215;-69
2023/02/14 03:47:57;;;;;;;3.80;1.60;;;8.10;99.90;;;;;;4993078;28;20182;-69
2023/02/14 03:50:27;;;;;;;3.67;2.40;;;8.10;99.90;;;;;;4991917;28;20204;-69
2023/02/14 03:52:56;;;;;;;3.63;2.43;;;8.10;99.90;;;;;;4992333;28;20247;-70
2023/02/14 03:55:30;;;;;;;5.93;2.43;;;8.10;99.90;;;;;;4993650;28;20275;-70
2023/02/14 03:58:04;;;;;;;3.87;2.17;;;8.10;99.90;;;;;;5000109;28;20195;-70
2023/02/14 04:00:36;;;;;;;3.57;1.90;;;8.00;99.90;;;;;;5001922;28;20191;-69
2023/02/14 04:03:10;;;;;;;4.80;2.20;;;8.00;99.90;;;;;;4993055;28;20228;-70
2023/02/14 04:05:40;;;;;;;7.07;2.50;;;8.10;99.90;;;;;;4995721;28;20253;-70
2023/02/14 04:08:08;;;;;;;3.80;1.90;;;8.00;99.90;;;;;;5020989;28;20207;-70
2023/02/14 04:10:38;;;;;;;4.43;2.13;;;8.00;99.90;;;;;;5001389;28;20202;-69
2023/02/14 04:13:06;;;;;;;4.97;2.53;;;8.00;99.90;;;;;;4994333;28;20195;-70
2023/02/14 04:15:33;;;;;;;6.60;2.30;;;8.00;99.90;;;;;;5011258;28;20196;-69
2023/02/14 04:20:44;;;;;;;1.60;1.50;;;8.00;99.90;;;;;;5007026;28;20184;-70
2023/02/14 04:23:13;;;;;;;3.93;2.03;;;8.00;99.90;;;;;;5000732;28;20786;-71
2023/02/14 04:25:42;;;;;;;4.53;2.07;;;8.10;99.90;;;;;;4993719;28;20203;-70
2023/02/14 04:28:09;;;;;;;3.50;2.30;;;8.00;99.90;;;;;;4991400;28;20709;-70
2023/02/14 04:30:36;;;;;;;3.50;2.07;;;8.00;99.90;;;;;;4992767;28;20667;-70
2023/02/14 04:33:04;;;;;;;4.07;2.30;;;7.90;99.90;;;;;;5016181;28;20299;-71
2023/02/14 04:35:31;;;;;;;2.70;1.80;;;8.00;99.90;;;;;;4991648;28;20200;-71
2023/02/14 04:37:58;;;;;;;3.53;2.20;;;8.00;99.90;;;;;;4994756;28;20215;-69
2023/02/14 04:40:25;;;;;;;4.03;2.27;;;7.90;99.90;;;;;;5005100;28;20210;-69
2023/02/14 04:42:54;;;;;;;5.80;2.33;;;7.90;99.90;;;;;;4997550;28;20207;-69
2023/02/14 04:45:21;;;;;;;3.17;2.10;;;7.90;99.90;;;;;;5008141;28;20210;-69
2023/02/14 04:47:48;;;;;;;6.40;2.90;;;7.80;99.90;;;;;;5012507;28;20197;-71
2023/02/14 04:50:15;;;;;;;3.07;2.40;;;7.80;99.90;;;;;;4991608;28;20211;-69
2023/02/14 04:52:42;;;;;;;2.60;2.17;;;7.80;99.90;;;;;;4992199;28;20201;-70
2023/02/14 04:55:10;;;;;;;5.33;2.53;;;7.80;99.90;;;;;;4993377;28;20298;-69
2023/02/14 04:57:37;;;;;;;4.70;2.33;;;7.80;99.90;;;;;;4992856;28;20208;-70
2023/02/14 05:00:07;;;;;;;4.17;2.00;;;7.70;99.90;;;;;;4993463;28;20204;-69
2023/02/14 05:02:34;;;;;;;3.23;2.07;;;7.80;99.90;;;;;;5006757;28;20231;-70
2023/02/14 05:05:01;;;;;;;2.17;1.77;;;7.80;99.90;;;;;;5006843;28;20599;-70
2023/02/14 05:07:28;;;;;;;5.33;2.50;;;7.80;99.90;;;;;;4993209;28;20528;-69
2023/02/14 05:09:55;;;;;;;2.17;1.80;;;7.80;99.90;;;;;;4992537;28;20962;-69
2023/02/14 05:12:22;;;;;;;2.40;1.90;;;7.80;99.90;;;;;;4991682;28;20199;-70
2023/02/14 05:14:49;;;;;;;1.70;1.60;;;7.80;99.90;;;;;;5007737;28;20211;-70
2023/02/14 05:17:18;;;;;;;2.97;1.80;;;7.80;99.90;;;;;;4992640;28;20211;-69
2023/02/14 05:19:45;;;;;;;3.07;1.83;;;7.80;99.90;;;;;;4991143;28;20780;-69
2023/02/14 05:22:12;;;;;;;4.13;2.20;;;7.80;99.90;;;;;;4993302;28;20200;-70
2023/02/14 05:24:39;;;;;;;2.83;2.23;;;7.80;99.90;;;;;;4993531;28;20608;-69
2023/02/14 05:27:06;;;;;;;4.70;2.77;;;7.80;99.90;;;;;;4991916;28;20211;-69
2023/02/14 05:29:35;;;;;;;3.87;2.27;;;7.80;99.90;;;;;;4992776;28;20198;-70
2023/02/14 05:32:02;;;;;;;4.53;1.93;;;7.80;99.90;;;;;;4990832;28;20734;-70
2023/02/14 05:34:31;;;;;;;1.93;1.70;;;7.80;99.90;;;;;;5006889;28;20204;-69
2023/02/14 05:36:58;;;;;;;2.93;2.50;;;7.80;99.90;;;;;;5006995;28;20205;-69
2023/02/14 05:39:25;;;;;;;2.67;2.10;;;7.80;99.90;;;;;;4996428;28;20293;-69
2023/02/14 05:41:52;;;;;;;2.33;2.07;;;7.80;99.90;;;;;;4991895;28;20572;-70
2023/02/14 05:44:19;;;;;;;3.90;2.00;;;7.80;99.90;;;;;;4992605;28;20204;-69
2023/02/14 05:46:46;;;;;;;2.27;2.00;;;7.80;99.90;;;;;;4991564;28;20272;-70
2023/02/14 05:49:13;;;;;;;3.83;2.40;;;7.80;99.90;;;;;;4994576;28;20195;-70
2023/02/14 05:51:42;;;;;;;4.63;2.60;;;7.80;99.90;;;;;;4990990;28;20207;-69
2023/02/14 05:54:09;;;;;;;4.17;2.37;;;7.80;99.90;;;;;;4992414;28;20293;-69
2023/02/14 05:56:36;;;;;;;5.37;2.60;;;7.80;99.90;;;;;;5013882;28;20250;-70
2023/02/14 05:59:03;;;;;;;4.53;2.43;;;7.80;99.90;;;;;;4993983;28;20230;-69
2023/02/14 06:01:30;;;;;;;3.77;2.57;;;7.80;99.90;;;;;;4991330;28;20207;-71
2023/02/14 06:03:57;;;;;;;2.33;2.20;;;7.70;99.90;;;;;;4993934;28;20227;-71
2023/02/14 06:06:25;;;;;;;5.33;3.00;;;7.70;99.90;;;;;;4991036;28;20231;-69
2023/02/14 06:08:53;;;;;;;7.13;3.00;;;7.70;99.90;;;;;;4992797;28;20568;-71
2023/02/14 06:11:20;;;;;;;5.67;2.63;;;7.70;99.90;;;;;;4990866;28;20320;-70
2023/02/14 06:13:47;;;;;;;3.60;2.30;;;7.70;99.90;;;;;;4994546;28;20195;-70
2023/02/14 06:16:14;;;;;;;3.07;2.30;;;7.70;99.90;;;;;;4991792;28;20202;-70
2023/02/14 06:18:41;;;;;;;5.00;3.17;;;7.80;99.90;;;;;;5007898;28;20554;-69
2023/02/14 06:21:09;;;;;;;3.20;2.40;;;7.80;99.90;;;;;;4996033;28;20203;-70
2023/02/14 06:23:36;;;;;;;6.40;3.33;;;7.80;99.90;;;;;;4992773;28;20207;-70
2023/02/14 06:26:04;;;;;;;3.67;2.70;;;7.80;99.90;;;;;;4990921;28;20207;-69
2023/02/14 06:28:32;;;;;;;3.30;2.53;;;7.70;99.90;;;;;;4994109;28;20206;-71
2023/02/14 06:30:59;;;;;;;2.57;2.27;;;7.70;99.90;;;;;;4994799;28;20208;-71
2023/02/14 06:33:26;;;;;;;2.97;2.00;;;7.70;99.90;;;;;;4990094;28;20203;-69
2023/02/14 06:35:53;;;;;;;4.80;2.83;;;7.80;99.90;;;;;;4990073;28;20298;-71
2023/02/14 06:38:22;;;;;;;3.27;2.60;;;7.80;99.90;;;;;;5004496;28;20631;-70
2023/02/14 06:40:50;;;;;;;4.13;2.93;;;7.80;99.90;;;;;;4994280;28;20254;-70
2023/02/14 06:43:18;;;;;;;4.93;3.00;;;7.80;99.90;;;;;;5005487;28;20664;-71
2023/02/14 06:45:46;;;;;;;3.60;2.80;;;7.80;99.90;;;;;;5005603;28;20258;-69
2023/02/14 06:48:14;;;;;;;3.23;2.30;;;7.80;99.90;;;;;;4990933;28;20199;-69
2023/02/14 06:50:41;;;;;;;6.07;3.30;;;7.80;99.90;;;;;;4989074;28;20191;-70
2023/02/14 06:53:08;;;;;;;5.83;3.60;;;7.80;99.90;;;;;;4991141;28;20201;-69
2023/02/14 06:55:35;;;;;;;2.47;2.10;;;7.80;99.90;;;;;;4989710;28;20226;-69
2023/02/14 06:58:02;;;;;;;2.53;2.20;;;7.80;99.90;;;;;;4990959;28;20207;-70
2023/02/14 07:00:31;;;;;;;2.23;2.03;;;7.80;99.90;;;;;;4990589;28;20218;-69
2023/02/14 07:02:58;;;;;;;2.20;2.00;;;7.90;99.90;;;;;;4996114;28;20650;-69
2023/02/14 07:05:25;;;;;;;2.50;2.03;;;7.90;99.90;;;;;;4993326;28;20191;-69
2023/02/14 07:07:52;;;;;;;2.30;2.10;;;8.00;99.90;;;;;;5010447;28;20208;-70
2023/02/14 07:10:20;;;;;;;5.00;2.23;;;8.00;99.90;;;;;;4994174;28;20230;-69
2023/02/14 07:12:50;;;;;;;3.37;1.70;;;8.00;99.90;;;;;;5006166;28;20559;-70
2023/02/14 07:15:18;;;;;;;2.37;1.70;;;8.10;99.90;;;;;;4991673;28;21503;-70
2023/02/14 07:18:02;;;;;;;1.87;1.73;;;8.70;99.90;;;;;;5010543;28;20203;-70
2023/02/14 07:20:32;;;;;;;3.67;2.20;;;8.20;99.90;;;;;;4998225;28;20580;-69
2023/02/14 07:23:13;;;;;;;2.93;2.60;;;8.20;99.90;;;;;;5004628;28;20183;-70
2023/02/14 07:25:46;;;;;;;1.80;1.70;;;8.20;99.90;;;;;;4993803;28;20214;-69
2023/02/14 07:28:15;;;;;;;1.73;1.60;;;8.20;99.90;;;;;;4996038;28;20682;-70
2023/02/14 07:30:46;;;;;;;3.43;2.00;;;8.30;99.90;;;;;;4998279;28;20697;-71
2023/02/14 07:33:19;;;;;;;2.07;1.80;;;8.30;99.90;;;;;;5000291;28;20231;-70
2023/02/14 07:35:51;;;;;;;1.70;1.60;;;8.40;99.90;;;;;;4995088;28;20657;-69
2023/02/14 07:38:23;;;;;;;1.67;1.57;;;8.50;99.90;;;;;;5000342;28;21383;-71
2023/02/14 07:40:55;;;;;;;1.93;1.60;;;8.50;99.90;;;;;;4997062;28;20867;-70
2023/02/14 07:43:25;;;;;;;1.80;1.60;;;8.60;99.90;;;;;;4997420;28;20407;-70
2023/02/14 07:45:55;;;;;;;1.83;1.73;;;8.60;99.90;;;;;;5001977;28;20202;-71
2023/02/14 07:48:24;;;;;;;3.40;1.70;;;8.60;99.90;;;;;;4997357;28;20247;-69
2023/02/14 07:50:56;;;;;;;1.67;1.57;;;8.70;99.90;;;;;;4995592;28;20250;-70
2023/02/14 07:53:24;;;;;;;1.83;1.40;;;8.70;99.90;;;;;;5000643;28;20196;-69
2023/02/14 07:55:54;;;;;;;1.53;1.43;;;8.80;99.90;;;;;;5000277;28;20220;-70
2023/02/14 07:58:21;;;;;;;2.53;2.00;;;8.90;99.90;;;;;;4995785;28;20238;-71
2023/02/14 08:00:51;;;;;;;1.60;1.50;;;8.90;99.90;;;;;;4997936;28;20560;-70
2023/02/14 08:03:18;;;;;;;1.43;1.33;;;9.00;99.90;;;;;;4996118;28;20252;-70
2023/02/14 08:05:55;;;;;;;3.07;1.63;;;9.00;99.90;;;;;;4999271;28;20203;-70
2023/02/14 08:08:25;;;;;;;2.10;1.67;;;9.10;99.90;;;;;;4997652;28;20189;-70
2023/02/14 08:10:52;;;;;;;2.07;1.83;;;9.20;99.90;;;;;;4996386;28;20202;-71
2023/02/14 08:13:18;;;;;;;1.50;1.40;;;9.30;99.90;;;;;;4999519;28;20206;-70
2023/02/14 08:16:04;;;;;;;1.83;1.67;;;9.40;99.90;;;;;;4997052;28;20291;-70
2023/02/14 08:18:32;;;;;;;2.73;2.20;;;9.60;99.90;;;;;;5016327;28;20919;-71
2023/02/14 08:21:01;;;;;;;4.23;2.57;;;9.70;99.90;;;;;;5010684;28;20207;-70
2023/02/14 08:23:28;;;;;;;3.00;1.90;;;9.70;99.90;;;;;;4997401;28;20702;-71
2023/02/14 08:25:56;;;;;;;2.30;2.00;;;9.80;99.90;;;;;;4997326;28;20206;-71
2023/02/14 08:28:24;;;;;;;2.00;1.90;;;9.80;99.90;;;;;;4998009;28;20248;-70
2023/02/14 08:30:51;;;;;;;1.93;1.80;;;9.80;99.90;;;;;;5000658;28;20202;-70
2023/02/14 08:33:26;;;;;;;1.70;1.60;;;9.80;99.90;;;;;;4995135;28;20256;-71
2023/02/14 08:35:55;;;;;;;2.37;1.97;;;9.90;99.90;;;;;;5009747;28;20206;-71
2023/02/14 08:38:23;;;;;;;2.10;1.90;;;9.90;99.90;;;;;;5000371;28;20589;-71
2023/02/14 08:40:52;;;;;;;2.27;2.07;;;9.90;99.90;;;;;;4999526;28;20253;-70
2023/02/14 08:43:19;;;;;;;3.43;2.30;;;10.00;99.90;;;;;;5003023;28;20267;-71
2023/02/14 08:45:48;;;;;;;4.03;2.00;;;10.00;99.90;;;;;;4995454;28;20254;-70
2023/02/14 08:48:18;;;;;;;2.97;2.20;;;10.10;99.90;;;;;;4996211;28;20210;-70
2023/02/14 08:50:45;;;;;;;5.27;2.80;;;10.20;99.90;;;;;;4996065;28;20207;-70
2023/02/14 08:53:15;;;;;;;2.60;2.40;;;10.30;99.90;;;;;;4998443;28;20216;-71
2023/02/14 08:55:44;;;;;;;3.47;2.67;;;10.40;99.90;;;;;;4999191;28;20196;-70
2023/02/14 08:58:11;;;;;;;4.83;3.10;;;10.60;99.90;;;;;;5010871;28;20192;-70
2023/02/14 09:00:38;;;;;;;3.27;2.70;;;10.60;99.90;;;;;;4999083;28;20197;-70
2023/02/14 09:03:05;;;;;;;3.97;3.00;;;10.60;99.90;;;;;;4991459;28;20249;-70
2023/02/14 09:05:33;;;;;;;4.27;3.10;;;10.60;99.90;;;;;;4995200;28;20218;-71
2023/02/14 09:08:02;;;;;;;5.33;3.10;;;10.60;99.90;;;;;;4995673;28;20203;-70
2023/02/14 09:10:29;;;;;;;4.83;2.20;;;10.60;99.90;;;;;;4996613;28;20197;-63
2023/02/14 09:12:58;;;;;;;3.17;2.73;;;10.60;99.90;;;;;;4997831;28;20685;-62
2023/02/14 09:15:25;;;;;;;2.03;1.93;;;10.60;99.90;;;;;;5001233;28;20208;-62
2023/02/14 09:17:52;;;;;;;2.33;2.13;;;10.60;99.90;;;;;;4998664;28;20226;-62
2023/02/14 09:20:20;;;;;;;3.27;2.40;;;10.70;99.90;;;;;;5000900;28;20281;-63
2023/02/14 09:22:47;;;;;;;2.73;2.47;;;10.80;99.90;;;;;;4994590;28;20697;-64
2023/02/14 09:25:17;;;;;;;3.10;2.60;;;10.90;99.90;;;;;;4994691;28;20208;-62
2023/02/14 09:27:55;;;;;;;2.47;2.20;;;10.90;99.90;;;;;;4996408;28;20202;-63
2023/02/14 09:30:24;;;;;;;3.53;2.07;;;11.10;99.90;;;;;;4994029;28;20279;-62
2023/02/14 09:32:53;;;;;;;3.03;2.43;;;11.20;99.90;;;;;;5001599;28;20690;-62
2023/02/14 09:38:17;;;;;;;2.80;2.30;;;11.20;99.90;;;;;;4998123;28;20228;-63
2023/02/14 09:40:45;;;;;;;2.23;2.00;;;11.30;99.90;;;;;;4993274;28;20199;-63
2023/02/14 09:43:19;;;;;;;1.87;1.57;;;11.40;99.90;;;;;;4993859;28;20258;-63
2023/02/14 09:45:52;;;;;;;3.30;2.50;;;11.50;99.90;;;;;;5008692;28;20203;-62
2023/02/14 09:48:29;;;;;;;2.30;2.10;;;11.60;99.90;;;;;;4991408;28;20198;-63
2023/02/14 09:50:59;;;;;;;2.17;2.07;;;11.70;99.90;;;;;;4994257;28;20221;-61
2023/02/14 09:53:33;;;;;;;2.53;2.10;;;11.80;99.70;;;;;;4990751;28;20663;-62
2023/02/14 09:56:10;;;;;;;2.77;2.50;;;12.00;99.60;;;;;;4993591;28;20218;-63
2023/02/14 09:58:44;;;;;;;2.70;2.50;;;12.20;99.30;;;;;;4996519;28;20206;-63
2023/02/14 10:01:19;;;;;;;4.13;2.53;;;12.60;98.80;;;;;;4995194;28;20659;-62
2023/02/14 10:04:13;;;;;;;2.33;2.13;;;12.70;98.20;;;;;;4997720;28;20304;-62
2023/02/14 10:06:48;;;;;;;3.00;2.10;;;12.90;98.00;;;;;;5010980;28;20606;-63
2023/02/14 10:09:44;;;;;;;2.63;2.30;;;13.10;97.80;;;;;;4997155;28;20198;-63
2023/02/14 10:12:17;;;;;;;3.33;2.57;;;13.10;97.60;;;;;;5000240;28;20206;-62
2023/02/14 10:14:45;;;;;;;3.53;1.83;;;13.40;97.50;;;;;;5004672;28;20199;-62
2023/02/14 10:17:20;;;;;;;2.37;2.10;;;14.10;97.20;;;;;;5008416;28;20212;-62
2023/02/14 10:19:53;;;;;;;2.63;2.43;;;14.80;96.20;;;;;;4999662;28;20295;-62
2023/02/14 10:22:25;;;;;;;2.60;2.40;;;15.40;94.90;;;;;;4993875;28;20204;-62
2023/02/14 10:24:56;;;;;;;2.97;2.40;;;16.10;94.20;;;;;;4990450;28;20289;-63
2023/02/14 10:27:30;;;;;;;2.80;2.17;;;16.90;93.00;;;;;;4994462;28;20226;-63
2023/02/14 10:29:59;;;;;;;3.37;2.73;;;17.30;91.90;;;;;;4994603;28;20199;-63
2023/02/14 10:32:35;;;;;;;4.47;2.90;;;17.50;90.50;;;;;;4993983;28;20202;-63
2023/02/14 10:35:11;;;;;;;3.83;3.20;;;17.50;89.50;;;;;;4993185;28;20192;-63
2023/02/14 10:37:54;;;;;;;3.13;2.83;;;17.60;87.40;;;;;;4998262;28;20207;-63
2023/02/14 10:40:43;;;;;;;2.37;2.17;;;17.80;86.10;;;;;;4995879;28;20293;-64
2023/02/14 10:43:22;;;;;;;2.60;2.40;;;17.80;85.60;;;;;;4991178;28;20196;-63
2023/02/14 10:46:00;;;;;;;6.20;2.60;;;17.80;85.40;;;;;;4991230;28;20195;-63
2023/02/14 10:48:38;;;;;;;3.23;2.20;;;17.90;83.60;;;;;;5005179;28;20254;-63
2023/02/14 10:51:15;;;;;;;2.63;2.10;;;18.10;83.70;;;;;;4993528;28;20674;-63
2023/02/14 10:53:51;;;;;;;2.60;2.03;;;18.50;82.70;;;;;;4993146;28;20285;-63
2023/02/14 10:56:23;;;;;;;4.40;2.30;;;18.70;81.80;;;;;;5009193;28;20227;-63
2023/02/14 10:58:54;;;;;;;4.73;2.43;;;18.70;80.30;;;;;;4993697;28;20195;-63
2023/02/14 11:01:22;;;;;;;2.40;2.20;;;18.70;78.70;;;;;;4996841;28;20200;-63
2023/02/14 11:03:57;;;;;;;3.50;2.03;;;18.80;78.40;;;;;;4993193;28;20323;-62
2023/02/14 11:06:24;;;;;;;2.13;1.90;;;19.00;78.30;;;;;;4996054;28;20205;-63
2023/02/14 11:08:51;;;;;;;3.63;2.47;;;19.30;77.70;;;;;;5008888;28;20205;-63
2023/02/14 11:11:25;;;;;;;2.93;2.53;;;19.00;75.30;;;;;;4992618;28;20285;-64
2023/02/14 11:13:52;;;;;;;3.37;2.03;;;18.50;75.40;;;;;;5017010;28;20324;-63
2023/02/14 11:16:29;;;;;;;4.80;2.70;;;18.20;76.20;;;;;;4992861;28;20273;-63
2023/02/14 11:19:18;;;;;;;4.40;2.70;;;18.20;75.90;;;;;;4994891;28;20243;-63
2023/02/14 11:21:48;;;;;;;2.33;2.17;;;18.10;75.60;;;;;;4994557;28;20603;-61
2023/02/14 11:24:20;;;;;;;3.83;2.17;;;17.80;75.50;;;;;;4998302;28;20309;-63
2023/02/14 11:26:51;;;;;;;2.22;2.03;;;17.70;75.60;;;;;;4991855;28;20264;-63
2023/02/14 11:29:26;;;;;;;2.67;2.40;;;17.90;75.20;;;;;;4992747;28;20548;-62
2023/02/14 11:31:53;;;;;;;2.50;2.03;;;17.90;75.00;;;;;;4991533;28;20227;-63
2023/02/14 11:34:32;;;;;;;4.33;2.40;;;17.60;75.50;;;;;;4998151;28;20841;-61
2023/02/14 11:37:01;;;;;;;3.23;2.03;;;17.40;75.80;;;;;;5005331;28;20729;-62
2023/02/14 11:39:30;;;;;;;5.20;2.90;;;17.30;76.00;;;;;;5003978;28;20542;-63
2023/02/14 11:42:02;;;;;;;2.23;2.03;;;17.20;76.10;;;;;;4991780;28;20196;-63
2023/02/14 11:44:31;;;;;;;2.73;2.27;;;16.90;76.30;;;;;;4994885;28;20604;-63
2023/02/14 11:47:19;;;;;;;3.83;2.53;;;16.80;76.80;;;;;;4990503;28;20258;-64
2023/02/14 11:49:58;;;;;;;5.03;2.70;;;16.50;76.70;;;;;;4997230;28;20267;-63
2023/02/14 11:52:28;;;;;;;5.63;2.90;;;16.20;76.50;;;;;;4991473;28;20198;-62
2023/02/14 11:54:56;;;;;;;3.93;2.10;;;15.90;76.60;;;;;;4994546;28;20250;-63
2023/02/14 11:57:27;;;;;;;3.30;2.17;;;15.70;77.50;;;;;;4998007;28;20203;-62
2023/02/14 11:59:56;;;;;;;4.97;2.80;;;15.60;78.10;;;;;;4998809;28;20690;-62
2023/02/14 12:02:28;;;;;;;3.03;2.20;;;15.70;78.20;;;;;;4998576;28;20203;-62
2023/02/14 12:05:00;;;;;;;3.30;2.13;;;16.00;78.30;;;;;;4995482;28;20188;-62
2023/02/14 12:07:30;;;;;;;3.53;2.47;;;15.90;78.30;;;;;;5000191;28;20531;-62
2023/02/14 12:10:20;;;;;;;3.93;2.83;;;15.80;78.00;;;;;;5000616;28;20195;-63
2023/02/14 12:12:57;;;;;;;2.93;2.33;;;15.60;78.30;;;;;;4995982;28;20214;-63
2023/02/14 12:15:36;;;;;;;4.53;2.90;;;15.50;78.60;;;;;;4999848;28;20216;-62
2023/02/14 12:18:43;;;;;;;4.47;2.67;;;15.40;78.70;;;;;;4996492;28;20198;-62
2023/02/14 12:21:25;;;;;;;4.43;2.63;;;15.20;78.90;;;;;;4994605;28;20207;-62
2023/02/14 12:24:00;;;;;;;3.73;2.10;;;15.10;79.80;;;;;;4993966;28;20610;-62
2023/02/14 12:26:33;;;;;;;1.90;1.70;;;15.10;80.00;;;;;;4996673;28;20194;-62
2023/02/14 12:29:09;;;;;;;4.23;2.30;;;15.20;80.20;;;;;;4997559;28;20282;-62
2023/02/14 12:31:37;;;;;;;2.53;2.07;;;15.20;80.20;;;;;;4997838;28;20271;-62
2023/02/14 12:34:04;;;;;;;2.27;2.17;;;15.20;80.40;;;;;;4996339;28;20199;-63
2023/02/14 12:36:52;;;;;;;6.67;3.17;;;15.20;80.70;;;;;;4997332;28;20195;-63
2023/02/14 12:39:26;;;;;;;3.53;2.57;;;15.00;80.70;;;;;;4997723;28;20270;-64
2023/02/14 12:42:04;;;;;;;4.07;2.40;;;15.00;81.00;;;;;;5013467;28;20207;-63
2023/02/14 12:44:43;;;;;;;2.33;2.10;;;14.80;81.10;;;;;;4994964;28;20717;-62
2023/02/14 12:47:19;;;;;;;3.53;2.13;;;14.70;81.50;;;;;;4996546;28;20674;-62
2023/02/14 12:50:15;;;;;;;5.07;2.47;;;14.60;81.80;;;;;;4994683;28;20562;-62
2023/02/14 12:53:12;;;;;;;2.40;2.20;;;14.40;81.80;;;;;;4998334;28;20195;-62
2023/02/14 12:55:56;;;;;;;5.20;3.00;;;14.30;82.20;;;;;;4987358;28;20290;-62
2023/02/14 12:58:35;;;;;;;5.43;2.67;;;14.10;82.20;;;;;;5011828;28;20210;-62
2023/02/14 13:01:23;;;;;;;5.37;2.80;;;14.10;83.50;;;;;;4996444;28;20207;-63
2023/02/14 13:04:28;;;;;;;4.60;3.00;;;14.00;83.00;;;;;;4995754;28;20308;-62
2023/02/14 13:07:03;;;;;;;3.77;2.80;;;14.00;83.20;;;;;;4987990;28;20202;-62
2023/02/14 13:09:40;;;;;;;4.07;3.27;;;13.90;83.60;;;;;;4995683;28;20190;-62
2023/02/14 13:12:21;;;;;;;3.30;2.60;;;13.80;83.90;;;;;;4996362;28;20736;-62
2023/02/14 13:15:01;;;;;;;3.83;2.80;;;13.80;84.20;;;;;;4995322;28;20888;-62
2023/02/14 13:17:37;;;;;;;3.37;2.40;;;13.90;84.30;;;;;;4992457;28;20231;-62
2023/02/14 13:20:29;;;;;;;4.90;2.70;;;14.00;84.40;;;;;;4995373;28;20221;-62
2023/02/14 13:23:02;;;;;;;2.83;2.33;;;14.10;84.50;;;;;;4992995;28;20206;-63
2023/02/14 13:25:36;;;;;;;8.40;3.20;;;14.30;84.40;;;;;;4991245;28;20190;-63
2023/02/14 13:28:07;;;;;;;2.73;2.47;;;14.30;84.10;;;;;;5002763;28;20210;-62
2023/02/14 13:30:37;;;;;;;3.60;2.63;;;14.40;84.20;;;;;;4998482;28;20206;-62
2023/02/14 13:33:09;;;;;;;3.07;2.70;;;14.60;84.90;;;;;;4993044;28;20206;-63